Terminal Aerodrome Forecast
Issued by NWS Wilmington, OH

Home | Current Version | Previous Version | Text Only | Print | Product List | Glossary On
Versions: 1 2 3 4 5 6 7 8 9 10 11 12 13 14 15 16 17
242
FTUS41 KILN 202354 CCA
TAFCMH
TAF COR
KCMH 202354Z 2100/2124 21007KT P6SM OVC025
     FM210300 20005KT P6SM OVC012
     FM210600 20005KT 4SM BR VCSH OVC006
     FM211700 20010KT P6SM OVC006=

USA.gov is the U.S. government's official web portal to all federal, state and local government web resources and services.